Time,TemperatureF,DewpointF,PressureIn,WindDirection,WindDirectionDegrees,WindSpeedMPH,WindSpeedGustMPH,Humidity,HourlyPrecipIn,Conditions,Clouds,dailyrainin,SolarRadiationWatts/m^2,SoftwareType,DateUTC
2013-08-08 00:01:00,52.0,52.0,-100.00,South,190,5.0,9.0,100,0.00,,,0.00,3.000000,,2013-08-08 07:01:00,
2013-08-08 00:43:00,54.0,54.0,-100.00,SSW,193,4.0,8.0,100,0.00,,,0.00,4.000000,,2013-08-08 07:43:00,
2013-08-08 00:53:00,54.0,54.0,-100.00,SSW,193,4.0,8.0,100,0.00,,,0.00,4.000000,,2013-08-08 07:53:00,
2013-08-08 01:01:00,54.0,54.0,-100.00,SSW,193,4.0,8.0,100,0.00,,,0.00,4.000000,,2013-08-08 08:01:00,
2013-08-08 01:32:00,53.0,53.0,-100.00,SSW,196,3.0,8.0,100,0.00,,,0.00,4.000000,,2013-08-08 08:32:00,
2013-08-08 01:43:00,53.0,53.0,-100.00,SSW,196,3.0,8.0,100,0.00,,,0.00,4.000000,,2013-08-08 08:43:00,
2013-08-08 01:53:00,53.0,53.0,-100.00,SSW,196,3.0,8.0,100,0.00,,,0.00,4.000000,,2013-08-08 08:53:00,
2013-08-08 02:01:00,53.0,53.0,-100.00,SSW,196,3.0,8.0,100,0.00,,,0.00,4.000000,,2013-08-08 09:01:00,
2013-08-08 02:32:00,53.0,53.0,-100.00,SSW,202,0.0,6.0,100,0.01,,,0.01,4.000000,,2013-08-08 09:32:00,
2013-08-08 02:43:00,53.0,53.0,-100.00,SSW,202,0.0,6.0,100,0.01,,,0.01,4.000000,,2013-08-08 09:43:00,
2013-08-08 02:53:00,53.0,53.0,-100.00,SSW,202,0.0,6.0,100,0.01,,,0.01,4.000000,,2013-08-08 09:53:00,
2013-08-08 03:01:00,53.0,53.0,-100.00,SSW,202,0.0,6.0,100,0.01,,,0.01,4.000000,,2013-08-08 10:01:00,
2013-08-08 03:32:00,53.0,53.0,-100.00,South,181,0.0,5.0,100,0.00,,,0.01,4.000000,,2013-08-08 10:32:00,
2013-08-08 03:43:00,53.0,53.0,-100.00,South,181,0.0,5.0,100,0.00,,,0.01,4.000000,,2013-08-08 10:43:00,
2013-08-08 03:52:00,53.0,53.0,-100.00,South,181,0.0,5.0,100,0.00,,,0.01,4.000000,,2013-08-08 10:52:00,
2013-08-08 04:01:00,53.0,53.0,-100.00,South,181,0.0,5.0,100,0.00,,,0.01,4.000000,,2013-08-08 11:01:00,
2013-08-08 04:32:00,53.0,53.0,-100.00,WSW,237,0.0,0.0,100,0.00,,,0.01,4.000000,,2013-08-08 11:32:00,
2013-08-08 04:43:00,53.0,53.0,-100.00,WSW,237,0.0,0.0,100,0.00,,,0.01,4.000000,,2013-08-08 11:43:00,
2013-08-08 04:52:00,53.0,53.0,-100.00,WSW,237,0.0,0.0,100,0.00,,,0.01,4.000000,,2013-08-08 11:52:00,
2013-08-08 05:01:00,53.0,53.0,-100.00,WSW,237,0.0,0.0,100,0.00,,,0.01,4.000000,,2013-08-08 12:01:00,
2013-08-08 05:32:00,53.0,53.0,-100.00,South,181,0.0,0.0,100,0.00,,,0.01,4.000000,,2013-08-08 12:32:00,
2013-08-08 05:43:00,53.0,53.0,-100.00,South,181,0.0,0.0,100,0.00,,,0.01,4.000000,,2013-08-08 12:43:00,
2013-08-08 05:53:00,53.0,53.0,-100.00,South,181,0.0,0.0,100,0.00,,,0.01,4.000000,,2013-08-08 12:53:00,
2013-08-08 06:01:00,53.0,53.0,-100.00,South,181,0.0,0.0,100,0.00,,,0.01,4.000000,,2013-08-08 13:01:00,
2013-08-08 06:32:00,52.0,52.0,-100.00,South,189,0.0,0.0,100,0.01,,,0.02,4.000000,,2013-08-08 13:32:00,
2013-08-08 06:43:00,52.0,52.0,-100.00,South,189,0.0,0.0,100,0.01,,,0.02,4.000000,,2013-08-08 13:43:00,
2013-08-08 06:52:00,52.0,52.0,-100.00,South,189,0.0,0.0,100,0.01,,,0.02,4.000000,,2013-08-08 13:52:00,
2013-08-08 07:02:00,52.0,52.0,-100.00,South,189,0.0,0.0,100,0.01,,,0.02,4.000000,,2013-08-08 14:02:00,
2013-08-08 07:32:00,54.0,54.0,-100.00,WSW,249,0.0,0.0,100,0.00,,,0.02,22.000000,,2013-08-08 14:32:00,
2013-08-08 07:43:00,54.0,54.0,-100.00,WSW,249,0.0,0.0,100,0.00,,,0.02,22.000000,,2013-08-08 14:43:00,
2013-08-08 07:53:00,54.0,54.0,-100.00,WSW,249,0.0,0.0,100,0.00,,,0.02,22.000000,,2013-08-08 14:53:00,
2013-08-08 08:02:00,54.0,54.0,-100.00,WSW,249,0.0,0.0,100,0.00,,,0.02,22.000000,,2013-08-08 15:02:00,
2013-08-08 08:43:00,54.0,54.0,-100.00,North,354,0.0,0.0,100,0.00,,,0.02,85.000000,,2013-08-08 15:43:00,
2013-08-08 08:53:00,54.0,54.0,-100.00,North,354,0.0,0.0,100,0.00,,,0.02,85.000000,,2013-08-08 15:53:00,
2013-08-08 09:01:00,54.0,54.0,-100.00,North,354,0.0,0.0,100,0.00,,,0.02,85.000000,,2013-08-08 16:01:00,
2013-08-08 09:32:00,57.0,57.0,-100.00,NE,46,0.0,2.0,100,0.00,,,0.02,130.000000,,2013-08-08 16:32:00,
2013-08-08 09:42:00,57.0,57.0,-100.00,NE,46,0.0,2.0,100,0.00,,,0.02,130.000000,,2013-08-08 16:42:00,
2013-08-08 09:52:00,57.0,57.0,-100.00,NE,46,0.0,2.0,100,0.00,,,0.02,130.000000,,2013-08-08 16:52:00,
2013-08-08 10:01:00,57.0,57.0,-100.00,NE,46,0.0,2.0,100,0.00,,,0.02,130.000000,,2013-08-08 17:01:00,
2013-08-08 10:32:00,62.0,62.0,-100.00,SE,131,2.0,6.0,100,0.00,,,0.02,392.000000,,2013-08-08 17:32:00,
2013-08-08 10:43:00,62.0,62.0,-100.00,SE,131,2.0,6.0,100,0.00,,,0.02,392.000000,,2013-08-08 17:43:00,
2013-08-08 10:52:00,62.0,62.0,-100.00,SE,131,2.0,6.0,100,0.00,,,0.02,392.000000,,2013-08-08 17:52:00,
2013-08-08 11:01:00,62.0,62.0,-100.00,SE,131,2.0,6.0,100,0.00,,,0.02,392.000000,,2013-08-08 18:01:00,
2013-08-08 11:32:00,59.0,59.0,-100.00,WNW,286,1.0,7.0,99,0.00,,,0.02,505.000000,,2013-08-08 18:32:00,
2013-08-08 11:43:00,59.0,59.0,-100.00,WNW,286,1.0,7.0,99,0.00,,,0.02,505.000000,,2013-08-08 18:43:00,
2013-08-08 11:52:00,59.0,59.0,-100.00,WNW,286,1.0,7.0,99,0.00,,,0.02,505.000000,,2013-08-08 18:52:00,
2013-08-08 12:01:00,59.0,59.0,-100.00,WNW,286,1.0,7.0,99,0.00,,,0.02,505.000000,,2013-08-08 19:01:00,
2013-08-08 12:32:00,63.0,59.0,-100.00,NW,314,5.0,8.0,88,0.00,,,0.02,656.000000,,2013-08-08 19:32:00,
2013-08-08 12:43:00,63.0,59.0,-100.00,NW,314,5.0,8.0,88,0.00,,,0.02,656.000000,,2013-08-08 19:43:00,
2013-08-08 12:56:00,63.0,59.0,-100.00,NW,314,5.0,8.0,88,0.00,,,0.02,656.000000,,2013-08-08 19:56:00,
2013-08-08 13:02:00,63.0,59.0,-100.00,NW,314,5.0,8.0,88,0.00,,,0.02,656.000000,,2013-08-08 20:02:00,
2013-08-08 13:32:00,63.0,58.0,-100.00,NNW,330,7.0,12.0,85,0.00,,,0.02,861.000000,,2013-08-08 20:32:00,
2013-08-08 13:42:00,63.0,58.0,-100.00,NNW,330,7.0,12.0,85,0.00,,,0.02,861.000000,,2013-08-08 20:42:00,
2013-08-08 13:52:00,63.0,58.0,-100.00,NNW,330,7.0,12.0,85,0.00,,,0.02,861.000000,,2013-08-08 20:52:00,
2013-08-08 14:01:00,63.0,58.0,-100.00,NNW,330,7.0,12.0,85,0.00,,,0.02,861.000000,,2013-08-08 21:01:00,
2013-08-08 14:34:00,59.0,56.0,-100.00,NNW,331,7.0,12.0,91,0.00,,,0.02,698.000000,,2013-08-08 21:34:00,
2013-08-08 14:45:00,59.0,56.0,-100.00,NNW,331,7.0,12.0,91,0.00,,,0.02,698.000000,,2013-08-08 21:45:00,
2013-08-08 14:55:00,59.0,56.0,-100.00,NNW,331,7.0,12.0,91,0.00,,,0.02,698.000000,,2013-08-08 21:55:00,
2013-08-08 15:02:00,59.0,56.0,-100.00,NNW,331,7.0,12.0,91,0.00,,,0.02,698.000000,,2013-08-08 22:02:00,
2013-08-08 15:37:00,60.0,56.0,-100.00,NNW,337,7.0,13.0,88,0.00,,,0.02,674.000000,,2013-08-08 22:37:00,
2013-08-08 15:49:00,60.0,56.0,-100.00,NNW,337,7.0,13.0,88,0.00,,,0.02,674.000000,,2013-08-08 22:49:00,
2013-08-08 15:56:00,60.0,56.0,-100.00,NNW,337,7.0,13.0,88,0.00,,,0.02,674.000000,,2013-08-08 22:56:00,
2013-08-08 16:02:00,60.0,56.0,-100.00,NNW,337,7.0,13.0,88,0.00,,,0.02,674.000000,,2013-08-08 23:02:00,
2013-08-08 16:48:00,59.0,58.0,-100.00,NNW,330,6.0,14.0,98,0.00,,,0.02,491.000000,,2013-08-08 23:48:00,
2013-08-08 16:56:00,59.0,58.0,-100.00,NNW,330,6.0,14.0,98,0.00,,,0.02,491.000000,,2013-08-08 23:56:00,
2013-08-08 17:01:00,59.0,58.0,-100.00,NNW,330,6.0,14.0,98,0.00,,,0.02,491.000000,,2013-08-09 00:01:00,
2013-08-08 17:47:00,57.0,57.0,-100.00,NNW,337,9.0,15.0,100,0.00,,,0.02,323.000000,,2013-08-09 00:47:00,
2013-08-08 17:55:00,57.0,57.0,-100.00,NNW,337,9.0,15.0,100,0.00,,,0.02,323.000000,,2013-08-09 00:55:00,
2013-08-08 18:01:00,57.0,57.0,-100.00,NNW,337,9.0,15.0,100,0.00,,,0.02,323.000000,,2013-08-09 01:01:00,
2013-08-08 18:46:00,57.0,57.0,-100.00,North,3,11.0,20.0,100,0.00,,,0.02,160.000000,,2013-08-09 01:46:00,
2013-08-08 19:02:00,57.0,57.0,-100.00,North,3,11.0,20.0,100,0.00,,,0.02,160.000000,,2013-08-09 02:02:00,
2013-08-08 19:47:00,54.0,54.0,-100.00,North,354,11.0,23.0,100,0.00,,,0.02,90.000000,,2013-08-09 02:47:00,
2013-08-08 19:56:00,54.0,54.0,-100.00,North,354,11.0,23.0,100,0.00,,,0.02,90.000000,,2013-08-09 02:56:00,
2013-08-08 20:03:00,54.0,54.0,-100.00,North,354,11.0,23.0,100,0.00,,,0.02,90.000000,,2013-08-09 03:03:00,
2013-08-08 20:47:00,53.0,53.0,-100.00,North,358,12.0,21.0,100,0.00,,,0.02,34.000000,,2013-08-09 03:47:00,
2013-08-08 20:54:00,53.0,53.0,-100.00,North,358,12.0,21.0,100,0.00,,,0.02,34.000000,,2013-08-09 03:54:00,
2013-08-08 21:01:00,53.0,53.0,-100.00,North,358,12.0,21.0,100,0.00,,,0.02,34.000000,,2013-08-09 04:01:00,
2013-08-08 21:33:00,52.0,52.0,-100.00,North,10,9.0,19.0,100,0.00,,,0.02,5.000000,,2013-08-09 04:33:00,
2013-08-08 21:43:00,52.0,52.0,-100.00,North,10,9.0,19.0,100,0.00,,,0.02,5.000000,,2013-08-09 04:43:00,
2013-08-08 21:53:00,52.0,52.0,-100.00,North,10,9.0,19.0,100,0.00,,,0.02,5.000000,,2013-08-09 04:53:00,
2013-08-08 22:01:00,52.0,52.0,-100.00,North,10,9.0,19.0,100,0.00,,,0.02,5.000000,,2013-08-09 05:01:00,
2013-08-08 22:33:00,52.0,52.0,-100.00,SSW,212,8.0,17.0,100,0.00,,,0.02,2.000000,,2013-08-09 05:33:00,
2013-08-08 22:43:00,52.0,52.0,-100.00,SSW,212,8.0,17.0,100,0.00,,,0.02,2.000000,,2013-08-09 05:43:00,
2013-08-08 22:52:00,52.0,52.0,-100.00,SSW,212,8.0,17.0,100,0.00,,,0.02,2.000000,,2013-08-09 05:52:00,
2013-08-08 23:01:00,52.0,52.0,-100.00,SSW,212,8.0,17.0,100,0.00,,,0.02,2.000000,,2013-08-09 06:01:00,
2013-08-08 23:32:00,53.0,53.0,-100.00,NNW,333,5.0,15.0,100,0.00,,,0.02,2.000000,,2013-08-09 06:32:00,
2013-08-08 23:43:00,53.0,53.0,-100.00,NNW,333,5.0,15.0,100,0.00,,,0.02,2.000000,,2013-08-09 06:43:00,
2013-08-08 23:52:00,53.0,53.0,-100.00,NNW,333,5.0,15.0,100,0.00,,,0.02,2.000000,,2013-08-09 06:52:00,